Time;durP1;ratioP1;P1;durP2;ratioP2;P2;SDS_P1;SDS_P2;PMS_P1;PMS_P2;Temp;Humidity;BMP_temperature;BMP_pressure;BME280_temperature;BME280_humidity;BME280_pressure;Samples;Min_cycle;Max_cycle;Signal;HPM_P1;HPM_P2
2023/05/17 00:00:19;;;;;;;13.10;7.33;;;;;;;17.22;77.88;94006.03;5128916;28;20220;-45
2023/05/17 00:02:46;;;;;;;10.63;6.60;;;;;;;17.31;77.80;94029.91;5117306;28;20688;-45
2023/05/17 00:05:12;;;;;;;8.23;6.40;;;;;;;17.28;77.77;94032.91;5108682;28;20216;-44
2023/05/17 00:07:39;;;;;;;9.80;6.43;;;;;;;17.25;77.88;94041.81;5109548;28;20185;-45
2023/05/17 00:10:07;;;;;;;9.63;6.20;;;;;;;17.24;77.93;94045.41;5110565;28;20189;-44
2023/05/17 00:12:35;;;;;;;11.60;6.50;;;;;;;17.22;77.99;94049.16;5119332;28;20195;-46
2023/05/17 00:15:02;;;;;;;10.60;6.47;;;;;;;17.18;77.84;94035.81;5128967;28;20798;-44
2023/05/17 00:17:29;;;;;;;7.00;6.10;;;;;;;17.15;78.06;94030.28;5129264;28;20199;-44
2023/05/17 00:19:56;;;;;;;11.07;6.53;;;;;;;17.11;78.14;94034.22;5129589;28;20204;-43
2023/05/17 00:22:23;;;;;;;8.90;6.27;;;;;;;17.10;78.04;94033.44;5131661;27;20295;-46
2023/05/17 00:24:49;;;;;;;6.73;5.93;;;;;;;17.08;78.03;94043.16;5133600;27;20269;-45
2023/05/17 00:27:16;;;;;;;7.80;6.53;;;;;;;17.00;78.18;94031.19;5133320;27;20200;-45
2023/05/17 00:29:44;;;;;;;7.83;6.10;;;;;;;17.02;78.07;94031.03;5133652;27;20192;-46
2023/05/17 00:32:11;;;;;;;8.40;6.30;;;;;;;16.97;78.30;94031.59;5133050;27;20200;-45
2023/05/17 00:34:38;;;;;;;9.07;6.23;;;;;;;16.95;78.33;94019.84;5133494;27;20184;-44
2023/05/17 00:37:05;;;;;;;8.83;6.73;;;;;;;16.95;78.35;94028.41;5133248;27;20195;-44
2023/05/17 00:39:31;;;;;;;8.90;6.47;;;;;;;16.83;78.37;94009.28;5133635;27;20276;-43
2023/05/17 00:42:00;;;;;;;8.40;6.07;;;;;;;16.91;78.46;94031.56;5133914;27;20188;-48
2023/05/17 00:44:27;;;;;;;9.00;6.20;;;;;;;16.88;78.52;94037.09;5133339;27;20279;-43
2023/05/17 00:46:56;;;;;;;7.70;6.90;;;;;;;16.83;78.43;94040.25;5132845;27;20188;-44
2023/05/17 00:49:23;;;;;;;8.53;6.20;;;;;;;16.83;78.55;94047.22;5132841;27;20284;-44
2023/05/17 00:51:49;;;;;;;8.43;5.97;;;;;;;16.80;78.50;94038.88;5133265;27;20438;-45
2023/05/17 00:54:16;;;;;;;13.33;6.23;;;;;;;16.75;78.69;94035.25;5133044;27;20188;-45
2023/05/17 00:56:44;;;;;;;9.50;6.43;;;;;;;16.75;78.62;94048.16;5133361;27;20200;-44
2023/05/17 00:59:13;;;;;;;7.70;6.00;;;;;;;16.71;78.73;94044.34;5132340;27;20298;-47
2023/05/17 01:01:42;;;;;;;8.23;5.80;;;;;;;16.66;78.83;94044.91;5134292;27;20564;-44
2023/05/17 01:04:10;;;;;;;8.80;6.37;;;;;;;16.67;78.79;94046.53;5135174;27;20188;-45
2023/05/17 01:06:37;;;;;;;7.17;6.17;;;;;;;16.67;78.89;94045.75;5135010;27;20188;-43
2023/05/17 01:09:06;;;;;;;12.13;6.30;;;;;;;16.64;78.82;94034.00;5132797;27;20606;-45
2023/05/17 01:11:42;;;;;;;8.10;6.30;;;;;;;16.52;79.04;94025.19;5133091;27;20188;-46
2023/05/17 01:14:20;;;;;;;7.33;6.37;;;;;;;16.62;78.90;94040.31;5132476;27;20669;-43
2023/05/17 01:16:51;;;;;;;7.10;5.87;;;;;;;16.61;78.83;94041.31;5132169;27;20191;-43
2023/05/17 01:19:46;;;;;;;8.20;6.40;;;;;;;16.56;79.06;94034.16;5132130;27;20273;-45
2023/05/17 01:22:27;;;;;;;7.77;6.57;;;;;;;16.57;78.98;94033.16;5131344;27;20192;-45
2023/05/17 01:25:08;;;;;;;9.80;6.13;;;;;;;16.54;79.03;94038.72;5132632;27;20232;-44
2023/05/17 01:27:39;;;;;;;8.70;6.17;;;;;;;16.53;79.19;94037.91;5132466;27;20212;-44
2023/05/17 01:30:09;;;;;;;9.67;6.37;;;;;;;16.49;78.96;94039.28;5132136;27;20183;-45
2023/05/17 01:32:40;;;;;;;7.70;5.87;;;;;;;16.47;79.22;94038.66;5131892;27;20195;-44
2023/05/17 01:35:07;;;;;;;6.93;6.17;;;;;;;16.46;79.18;94036.28;5132662;27;20188;-45
2023/05/17 01:37:34;;;;;;;6.93;6.20;;;;;;;16.44;79.19;94027.91;5132092;27;20648;-45
2023/05/17 01:40:01;;;;;;;7.80;6.17;;;;;;;16.37;79.21;94019.38;5132375;27;20572;-44
2023/05/17 01:42:31;;;;;;;11.13;6.30;;;;;;;16.39;79.13;94038.81;5131933;27;20188;-45
2023/05/17 01:45:06;;;;;;;6.97;6.10;;;;;;;16.16;79.21;94002.16;5132351;27;20192;-45
2023/05/17 01:47:40;;;;;;;9.93;6.23;;;;;;;16.31;79.22;94032.00;5131981;27;20200;-45
2023/05/17 01:50:10;;;;;;;11.03;7.07;;;;;;;16.34;79.15;94048.13;5132235;27;20212;-45
2023/05/17 01:52:43;;;;;;;7.70;6.20;;;;;;;16.29;79.34;94040.94;5132271;27;20184;-46
2023/05/17 01:55:18;;;;;;;8.50;6.07;;;;;;;16.30;79.38;94029.63;5131851;27;20184;-46
2023/05/17 01:57:48;;;;;;;6.80;5.83;;;;;;;16.19;79.40;94009.50;5131667;27;20184;-46
2023/05/17 02:00:18;;;;;;;6.40;5.80;;;;;;;16.17;79.33;94022.59;5131975;27;20204;-46
2023/05/17 02:02:45;;;;;;;9.67;6.10;;;;;;;16.23;79.28;94036.50;5131886;27;20267;-46
2023/05/17 02:05:12;;;;;;;10.17;6.60;;;;;;;16.21;79.59;94038.50;5131630;27;20266;-46
2023/05/17 02:07:39;;;;;;;9.83;6.50;;;;;;;16.20;79.50;94034.34;5131554;27;20191;-45
2023/05/17 02:10:07;;;;;;;9.67;6.13;;;;;;;16.17;79.59;94032.13;5131249;27;20238;-42
2023/05/17 02:12:34;;;;;;;7.93;6.50;;;;;;;16.15;79.57;94024.59;5131241;27;20600;-45
2023/05/17 02:15:00;;;;;;;7.37;6.20;;;;;;;16.13;79.52;94023.97;5132019;27;20204;-43
2023/05/17 02:17:28;;;;;;;10.97;6.80;;;;;;;16.05;79.69;94013.78;5131025;27;20184;-44
2023/05/17 02:19:55;;;;;;;10.90;6.70;;;;;;;16.07;79.54;94019.56;5131518;27;20694;-45
2023/05/17 02:22:22;;;;;;;7.73;6.30;;;;;;;16.09;79.70;94025.31;5131309;27;20552;-44
2023/05/17 02:24:49;;;;;;;6.23;5.53;;;;;;;16.05;79.62;94017.16;5131177;27;20281;-45
2023/05/17 02:27:16;;;;;;;11.90;7.03;;;;;;;16.06;79.81;94028.25;5131497;27;20188;-45
2023/05/17 02:29:42;;;;;;;8.33;6.73;;;;;;;16.03;79.67;94024.28;5131267;27;20540;-46
2023/05/17 02:32:09;;;;;;;7.30;5.63;;;;;;;15.95;79.62;94008.16;5130924;27;20192;-46
2023/05/17 02:34:38;;;;;;;8.87;6.60;;;;;;;15.95;79.85;94013.31;5131075;27;20236;-46
2023/05/17 02:37:05;;;;;;;7.43;6.63;;;;;;;15.99;79.51;94022.28;5131635;27;20195;-44
2023/05/17 02:39:32;;;;;;;17.00;7.03;;;;;;;15.97;79.80;94031.97;5130510;27;20212;-46
2023/05/17 02:41:59;;;;;;;10.73;6.20;;;;;;;15.94;79.83;94022.84;5131073;27;20192;-44
2023/05/17 02:44:26;;;;;;;9.97;6.87;;;;;;;15.93;79.85;94028.16;5130218;27;20191;-46
2023/05/17 02:46:52;;;;;;;6.93;5.73;;;;;;;15.91;79.88;94030.16;5130968;27;20192;-44
2023/05/17 02:49:19;;;;;;;10.97;5.47;;;;;;;15.88;79.87;94028.72;5130701;27;20200;-45
2023/05/17 02:51:47;;;;;;;7.50;6.30;;;;;;;15.88;79.70;94043.41;5130859;27;20191;-45
2023/05/17 02:54:14;;;;;;;9.90;6.00;;;;;;;15.88;79.75;94043.41;5130174;27;20269;-43
2023/05/17 02:56:41;;;;;;;11.93;6.40;;;;;;;15.86;79.75;94048.75;5130726;27;20185;-44
2023/05/17 02:59:08;;;;;;;11.67;6.57;;;;;;;15.84;79.80;94053.28;5130472;27;20199;-46
2023/05/17 03:01:34;;;;;;;10.93;6.83;;;;;;;15.83;79.89;94056.84;5130841;27;20204;-45
2023/05/17 03:04:01;;;;;;;7.00;5.97;;;;;;;15.82;79.76;94062.22;5130990;27;20191;-45
2023/05/17 03:06:28;;;;;;;11.33;6.60;;;;;;;15.76;79.83;94069.69;5130455;27;20191;-45
2023/05/17 03:08:56;;;;;;;7.77;5.63;;;;;;;15.79;80.01;94068.50;5130502;27;20192;-47
2023/05/17 03:11:23;;;;;;;11.27;6.33;;;;;;;15.78;79.73;94074.66;5131310;27;20192;-45
2023/05/17 03:13:50;;;;;;;8.87;6.27;;;;;;;15.77;79.87;94073.88;5130454;27;20202;-44
2023/05/17 03:16:17;;;;;;;8.73;5.70;;;;;;;15.67;79.74;94065.66;5129941;27;20184;-45
2023/05/17 03:18:44;;;;;;;9.30;6.53;;;;;;;15.77;79.74;94080.81;5130673;27;20188;-45
2023/05/17 03:21:10;;;;;;;8.93;5.80;;;;;;;15.59;80.23;94059.75;5130124;27;20223;-45
2023/05/17 03:23:37;;;;;;;9.77;6.33;;;;;;;15.77;79.77;94086.75;5130351;27;20200;-44
2023/05/17 03:26:05;;;;;;;10.73;6.70;;;;;;;15.79;79.76;94086.56;5129777;27;20311;-45
2023/05/17 03:28:32;;;;;;;10.00;6.17;;;;;;;15.78;79.81;94083.19;5130353;27;20577;-43
2023/05/17 03:30:59;;;;;;;11.43;5.80;;;;;;;15.82;79.62;94078.47;5130403;27;20211;-44
2023/05/17 03:33:26;;;;;;;8.93;6.37;;;;;;;15.83;79.52;94079.25;5129941;27;20180;-46
2023/05/17 03:35:53;;;;;;;8.67;5.60;;;;;;;15.88;79.66;94075.13;5130141;27;20176;-44
2023/05/17 03:38:19;;;;;;;10.10;5.93;;;;;;;15.91;79.35;94076.56;5129506;27;20180;-44
2023/05/17 03:40:46;;;;;;;8.80;6.23;;;;;;;15.91;79.24;94063.66;5129769;27;20754;-47
2023/05/17 03:43:14;;;;;;;8.67;6.63;;;;;;;16.04;79.17;94074.09;5130007;27;20181;-43
2023/05/17 03:45:41;;;;;;;8.03;5.70;;;;;;;16.10;78.81;94065.59;5130037;27;20196;-43
2023/05/17 03:48:08;;;;;;;10.60;6.23;;;;;;;16.17;78.64;94068.25;5129703;27;20192;-44
2023/05/17 03:50:35;;;;;;;11.13;6.57;;;;;;;16.26;78.53;94074.84;5129685;27;20202;-44
2023/05/17 03:53:01;;;;;;;8.07;6.50;;;;;;;16.35;78.29;94072.94;5130208;28;20196;-44
2023/05/17 03:55:28;;;;;;;9.50;6.53;;;;;;;16.41;78.15;94075.56;5129503;27;20196;-46
2023/05/17 03:57:55;;;;;;;8.10;6.77;;;;;;;16.45;78.03;94073.38;5129396;28;20204;-45
2023/05/17 04:00:23;;;;;;;8.97;6.33;;;;;;;16.50;77.98;94071.06;5129925;28;20693;-46
2023/05/17 04:02:51;;;;;;;9.87;6.73;;;;;;;16.36;77.75;94034.03;5129161;28;20648;-45
2023/05/17 04:05:18;;;;;;;8.90;6.13;;;;;;;16.66;77.68;94081.06;5129789;28;20192;-47
2023/05/17 04:07:45;;;;;;;10.50;6.37;;;;;;;16.75;77.37;94077.41;5129971;28;20196;-44
2023/05/17 04:10:11;;;;;;;12.27;5.97;;;;;;;16.88;77.10;94088.75;5129469;28;20549;-47
2023/05/17 04:12:38;;;;;;;11.97;7.17;;;;;;;17.00;76.80;94084.66;5129677;28;20676;-45
2023/05/17 04:15:07;;;;;;;10.93;6.13;;;;;;;17.11;76.85;94085.91;5129679;28;20328;-45
2023/05/17 04:17:35;;;;;;;6.93;6.10;;;;;;;17.27;76.23;94088.13;5129482;28;20296;-44
2023/05/17 04:20:02;;;;;;;12.67;7.57;;;;;;;17.45;75.84;94078.06;5129480;28;20230;-44
2023/05/17 04:22:29;;;;;;;10.20;6.50;;;;;;;17.68;75.23;94079.50;5129682;28;20205;-46
2023/05/17 04:24:56;;;;;;;11.10;6.80;;;;;;;17.85;74.83;94078.16;5131163;28;20220;-44
2023/05/17 04:27:23;;;;;;;7.67;6.43;;;;;;;18.01;74.50;94077.00;5132695;28;20187;-44
2023/05/17 04:29:50;;;;;;;11.83;6.60;;;;;;;18.14;74.26;94078.81;5129388;28;20188;-43
2023/05/17 04:32:17;;;;;;;12.10;6.93;;;;;;;18.24;74.05;94082.56;5129763;28;20687;-44
2023/05/17 04:34:46;;;;;;;14.37;6.70;;;;;;;18.35;73.89;94077.78;5130453;28;20260;-41
2023/05/17 04:37:13;;;;;;;12.10;7.17;;;;;;;18.45;73.51;94066.03;5129669;28;20192;-45
2023/05/17 04:39:40;;;;;;;10.30;6.77;;;;;;;18.62;73.31;94075.97;5129191;28;20297;-45
2023/05/17 04:42:07;;;;;;;10.10;5.20;;;;;;;18.76;74.68;94073.16;5129717;28;20629;-44
2023/05/17 04:44:34;;;;;;;7.50;4.70;;;;;;;19.06;83.66;94075.28;5129928;28;20267;-44
2023/05/17 04:47:02;;;;;;;9.97;4.83;;;;;;;19.37;85.71;94071.16;5129244;28;20192;-42
2023/05/17 04:49:29;;;;;;;7.97;4.63;;;;;;;19.71;85.26;94080.38;5129439;28;20193;-46
2023/05/17 04:51:57;;;;;;;9.70;5.00;;;;;;;19.82;84.17;94043.41;5129213;28;20733;-45
2023/05/17 04:54:24;;;;;;;7.30;4.77;;;;;;;20.37;82.58;94085.09;5130072;28;20188;-45
2023/05/17 04:56:51;;;;;;;8.13;4.80;;;;;;;20.67;81.11;94074.88;5129725;28;20283;-46
2023/05/17 04:59:18;;;;;;;13.60;5.20;;;;;;;20.96;80.04;94067.38;5129578;28;20188;-46
2023/05/17 05:01:45;;;;;;;6.20;4.85;;;;;;;21.08;79.00;94055.25;5129429;28;20231;-45
2023/05/17 05:04:11;;;;;;;7.88;5.45;;;;;;;21.56;77.34;94082.31;5129679;28;20195;-45
2023/05/17 05:06:39;;;;;;;7.90;5.72;;;;;;;21.87;75.83;94082.06;5129733;27;20184;-44
2023/05/17 05:09:07;;;;;;;12.00;6.10;;;;;;;22.16;74.49;94087.50;5133780;27;20192;-44
2023/05/17 05:11:34;;;;;;;6.28;5.35;;;;;;;22.48;73.23;94087.97;5133473;27;20198;-44
2023/05/17 05:14:01;;;;;;;7.05;5.28;;;;;;;22.83;72.23;94106.22;5133897;27;20188;-46
2023/05/17 05:16:28;;;;;;;10.20;4.78;;;;;;;23.18;71.37;94100.97;5133135;27;20215;-46
2023/05/17 05:18:55;;;;;;;8.73;5.22;;;;;;;23.54;70.43;94102.50;5133719;27;20263;-44
2023/05/17 05:21:21;;;;;;;11.77;6.35;;;;;;;23.92;69.00;94108.97;5133059;27;20216;-46
2023/05/17 05:23:48;;;;;;;8.02;6.63;;;;;;;24.31;67.42;94108.28;5132899;27;20192;-45
2023/05/17 05:26:16;;;;;;;12.88;7.82;;;;;;;24.71;65.78;94103.72;5133165;27;20224;-44
2023/05/17 05:28:43;;;;;;;13.40;7.57;;;;;;;25.12;63.48;94103.50;5132813;27;20294;-47
2023/05/17 05:31:10;;;;;;;14.73;8.23;;;;;;;25.54;62.15;94106.38;5133085;27;20192;-46
2023/05/17 05:33:36;;;;;;;10.18;7.43;;;;;;;25.89;60.81;94099.94;5132663;27;20204;-43
2023/05/17 05:36:04;;;;;;;14.93;7.78;;;;;;;26.25;59.57;94101.88;5133118;27;20660;-46
2023/05/17 05:38:30;;;;;;;10.85;7.85;;;;;;;26.51;58.72;94100.28;5132823;27;20192;-47
2023/05/17 05:40:57;;;;;;;11.45;7.88;;;;;;;26.82;57.65;94100.47;5132789;27;20231;-47
2023/05/17 05:43:25;;;;;;;12.00;8.52;;;;;;;27.04;57.13;94102.19;5126364;27;20222;-44
2023/05/17 05:45:52;;;;;;;8.05;7.25;;;;;;;27.11;55.84;94090.41;5132042;27;20196;-44
2023/05/17 05:48:19;;;;;;;10.75;7.95;;;;;;;27.37;55.34;94109.69;5132624;27;20195;-47
2023/05/17 05:50:46;;;;;;;10.43;7.55;;;;;;;27.60;54.85;94111.13;5132890;27;20184;-44
2023/05/17 05:53:13;;;;;;;10.23;7.43;;;;;;;27.84;54.12;94113.31;5133187;27;20193;-44
2023/05/17 05:55:42;;;;;;;7.47;6.60;;;;;;;27.96;54.05;94101.50;5133306;27;20190;-45
2023/05/17 05:58:09;;;;;;;11.40;7.43;;;;;;;28.01;53.62;94098.88;5123733;27;20579;-47
2023/05/17 06:00:37;;;;;;;11.75;7.10;;;;;;;28.26;53.34;94106.00;5127235;27;20683;-44
2023/05/17 06:03:06;;;;;;;10.35;6.82;;;;;;;28.43;52.78;94118.94;5132158;27;20198;-48
2023/05/17 06:05:33;;;;;;;9.05;6.43;;;;;;;28.57;52.25;94118.41;5132098;27;20180;-45
2023/05/17 06:08:00;;;;;;;7.75;6.47;;;;;;;28.61;52.45;94122.09;5130699;27;20185;-44
2023/05/17 06:10:27;;;;;;;10.48;6.38;;;;;;;28.74;52.08;94121.56;5131446;27;20618;-43
2023/05/17 06:12:54;;;;;;;9.73;6.82;;;;;;;28.78;51.40;94104.19;5131424;27;20652;-45
2023/05/17 06:15:21;;;;;;;9.18;7.00;;;;;;;28.91;50.94;94110.75;5131188;27;20191;-45
2023/05/17 06:17:49;;;;;;;9.50;7.03;;;;;;;29.04;50.87;94119.97;5131230;27;20188;-46
2023/05/17 06:20:16;;;;;;;8.40;6.22;;;;;;;29.23;50.22;94129.69;5130118;27;20189;-45
2023/05/17 06:22:43;;;;;;;8.77;7.35;;;;;;;29.30;49.89;94136.50;5131272;27;20200;-46
2023/05/17 06:25:10;;;;;;;9.45;6.63;;;;;;;29.30;49.52;94129.38;5130978;27;20228;-47
2023/05/17 06:27:37;;;;;;;7.35;6.63;;;;;;;29.32;49.44;94134.38;5131088;27;20185;-45
2023/05/17 06:30:04;;;;;;;9.30;7.18;;;;;;;29.17;49.42;94122.84;5130548;27;20184;-44
2023/05/17 06:32:31;;;;;;;7.82;6.80;;;;;;;29.24;49.12;94136.53;5130693;27;20200;-45
2023/05/17 06:35:00;;;;;;;11.40;6.75;;;;;;;29.18;48.97;94131.50;5131054;27;20591;-46
2023/05/17 06:37:27;;;;;;;7.63;5.85;;;;;;;29.20;49.08;94124.16;5131124;27;20299;-45
2023/05/17 06:40:01;;;;;;;11.95;6.75;;;;;;;29.37;48.91;94145.69;5130949;27;20193;-45
2023/05/17 06:42:28;;;;;;;10.00;6.85;;;;;;;29.46;48.48;94133.53;5130544;27;20610;-45
2023/05/17 06:44:55;;;;;;;8.00;6.75;;;;;;;29.42;48.28;94119.34;5131079;27;20188;-44
2023/05/17 06:47:21;;;;;;;9.07;6.47;;;;;;;29.58;48.48;94135.09;5130070;27;20196;-45
2023/05/17 06:49:48;;;;;;;10.38;6.68;;;;;;;29.69;48.08;94134.00;5130463;27;20188;-45
2023/05/17 06:52:16;;;;;;;10.27;6.88;;;;;;;29.81;47.92;94128.44;5130762;27;20192;-46
2023/05/17 06:54:43;;;;;;;8.68;6.70;;;;;;;29.91;47.55;94138.91;5130537;27;20677;-46
2023/05/17 06:57:10;;;;;;;7.32;6.22;;;;;;;29.96;47.44;94131.75;5130460;27;20185;-44
2023/05/17 06:59:37;;;;;;;7.68;6.45;;;;;;;30.02;47.28;94132.53;5130359;27;20608;-45
2023/05/17 07:02:04;;;;;;;9.23;6.38;;;;;;;30.09;46.95;94134.84;5130012;27;20226;-46
2023/05/17 07:04:31;;;;;;;9.85;6.53;;;;;;;30.21;46.96;94146.66;5130615;27;20192;-45
2023/05/17 07:06:58;;;;;;;9.35;7.05;;;;;;;30.29;46.49;94136.63;5130182;27;20660;-45
2023/05/17 07:09:26;;;;;;;9.15;6.45;;;;;;;30.37;46.54;94133.38;5130543;27;20187;-46
2023/05/17 07:11:53;;;;;;;8.20;6.20;;;;;;;30.40;46.37;94136.28;5130214;27;20294;-46
2023/05/17 07:14:20;;;;;;;10.90;5.88;;;;;;;30.48;45.98;94140.97;5130342;27;20192;-44
2023/05/17 07:16:48;;;;;;;8.38;6.68;;;;;;;30.53;45.90;94153.34;5129857;27;20546;-45
2023/05/17 07:19:14;;;;;;;8.52;5.90;;;;;;;30.57;45.55;94146.44;5129851;27;20192;-45
2023/05/17 07:21:41;;;;;;;7.57;6.45;;;;;;;30.60;45.79;94155.66;5130108;27;20216;-46
2023/05/17 07:24:09;;;;;;;11.02;6.22;;;;;;;30.63;45.68;94150.59;5129777;27;20219;-45
2023/05/17 07:26:37;;;;;;;7.10;6.40;;;;;;;30.61;45.51;94157.22;5129872;27;20189;-45
2023/05/17 07:29:04;;;;;;;6.97;5.82;;;;;;;30.55;45.50;94153.84;5129824;27;20196;-44
2023/05/17 07:31:30;;;;;;;9.95;6.50;;;;;;;30.49;45.69;94147.81;5128876;27;20207;-44
2023/05/17 07:33:57;;;;;;;6.05;5.45;;;;;;;30.43;45.76;94156.03;5129411;27;20309;-45
2023/05/17 07:36:26;;;;;;;8.23;6.60;;;;;;;30.35;45.79;94160.03;5129880;27;20204;-45
2023/05/17 07:38:52;;;;;;;10.23;6.47;;;;;;;30.13;45.58;94141.94;5129668;27;20211;-46
2023/05/17 07:41:22;;;;;;;8.65;6.47;;;;;;;30.14;45.71;94163.81;5128846;27;20226;-45
2023/05/17 07:43:50;;;;;;;9.30;6.35;;;;;;;30.01;45.76;94162.59;5129115;27;20241;-44
2023/05/17 07:46:17;;;;;;;7.90;6.20;;;;;;;29.89;46.29;94168.19;5129779;27;20191;-44
2023/05/17 07:48:44;;;;;;;8.50;6.72;;;;;;;29.76;46.04;94166.16;5128796;27;20199;-44
2023/05/17 07:51:11;;;;;;;13.90;7.13;;;;;;;29.54;46.30;94134.06;5127928;27;20536;-47
2023/05/17 07:53:37;;;;;;;8.82;6.95;;;;;;;29.54;46.38;94153.28;5129875;28;20188;-46
2023/05/17 07:56:05;;;;;;;8.52;6.70;;;;;;;29.48;46.68;94151.72;5129766;28;20207;-45
2023/05/17 07:58:32;;;;;;;7.43;5.90;;;;;;;29.42;46.74;94165.97;5129516;28;20188;-45
2023/05/17 08:01:01;;;;;;;7.90;6.13;;;;;;;29.39;46.68;94161.22;5129078;28;20200;-46
2023/05/17 08:03:28;;;;;;;10.27;7.32;;;;;;;29.32;46.60;94153.63;5129193;28;20676;-45
2023/05/17 08:05:55;;;;;;;9.90;6.50;;;;;;;29.25;46.61;94153.09;5128789;28;20180;-46
2023/05/17 08:08:21;;;;;;;14.57;7.50;;;;;;;29.21;46.71;94155.47;5129275;28;20180;-46
2023/05/17 08:10:48;;;;;;;10.27;7.15;;;;;;;29.18;46.66;94153.38;5129383;28;20193;-45
2023/05/17 08:13:15;;;;;;;9.23;6.55;;;;;;;29.18;46.66;94147.31;5128628;28;20192;-45
2023/05/17 08:15:42;;;;;;;11.43;7.40;;;;;;;29.20;46.86;94158.38;5129063;28;20578;-45
2023/05/17 08:18:10;;;;;;;8.80;6.28;;;;;;;29.16;46.42;94146.81;5128870;28;20195;-46
2023/05/17 08:20:37;;;;;;;9.15;7.60;;;;;;;29.15;46.42;94153.13;5128917;28;20266;-46
2023/05/17 08:23:04;;;;;;;11.43;7.03;;;;;;;29.13;46.44;94149.97;5129279;28;20704;-45
2023/05/17 08:25:31;;;;;;;9.02;6.93;;;;;;;29.08;46.74;94148.13;5128912;28;20637;-44
2023/05/17 08:27:58;;;;;;;7.40;6.18;;;;;;;29.00;46.89;94148.69;5129504;28;20189;-44
2023/05/17 08:30:24;;;;;;;9.82;6.93;;;;;;;28.78;46.96;94113.94;5128705;28;20542;-45
2023/05/17 08:32:51;;;;;;;8.93;7.10;;;;;;;28.87;46.99;94138.66;5128279;28;20340;-43
2023/05/17 08:35:20;;;;;;;7.70;6.47;;;;;;;28.86;46.65;94137.09;5128842;28;20188;-44
2023/05/17 08:37:47;;;;;;;10.70;7.32;;;;;;;28.81;46.88;94137.09;5128739;28;20192;-44
2023/05/17 08:40:18;;;;;;;10.48;6.82;;;;;;;28.70;46.90;94133.66;5128643;28;20188;-46
2023/05/17 08:42:46;;;;;;;9.55;7.00;;;;;;;28.70;47.18;94141.56;5130417;27;20261;-44
2023/05/17 08:45:13;;;;;;;10.05;7.43;;;;;;;28.60;47.52;94142.38;5132752;27;20287;-45
2023/05/17 08:47:42;;;;;;;9.60;6.50;;;;;;;28.46;47.22;94136.84;5131869;27;20223;-44
2023/05/17 08:50:11;;;;;;;10.23;7.25;;;;;;;28.56;47.28;94146.56;5132790;27;20188;-44
2023/05/17 08:52:40;;;;;;;11.65;7.03;;;;;;;28.57;47.28;94144.72;5132544;27;20192;-44
2023/05/17 08:55:08;;;;;;;9.18;6.50;;;;;;;28.62;47.32;94145.50;5132652;27;20191;-45
2023/05/17 08:57:36;;;;;;;10.70;7.30;;;;;;;28.60;47.42;94145.00;5131927;27;20228;-44
2023/05/17 09:00:11;;;;;;;8.85;6.82;;;;;;;28.57;47.37;94137.63;5129656;27;20241;-45
2023/05/17 09:02:38;;;;;;;12.45;7.03;;;;;;;28.55;47.41;94142.38;5128768;27;20215;-45
2023/05/17 09:05:07;;;;;;;11.20;6.55;;;;;;;28.52;47.44;94142.09;5129968;27;20188;-44
2023/05/17 09:07:34;;;;;;;9.40;6.97;;;;;;;28.26;47.54;94105.22;5129438;27;20193;-46
2023/05/17 09:10:04;;;;;;;9.48;6.90;;;;;;;28.47;47.75;94138.41;5132918;27;20200;-46
2023/05/17 09:12:33;;;;;;;10.77;7.13;;;;;;;28.41;47.86;94136.84;5131045;27;21837;-45
2023/05/17 09:15:14;;;;;;;13.68;7.03;;;;;;;28.34;47.51;94124.97;5132406;27;20252;-43
2023/05/17 09:17:41;;;;;;;10.88;7.60;;;;;;;28.25;48.07;94124.69;5131748;27;20692;-44
2023/05/17 09:20:08;;;;;;;20.73;6.40;;;;;;;28.18;47.92;94127.56;5132016;27;20287;-42
2023/05/17 09:22:35;;;;;;;13.05;6.55;;;;;;;28.13;47.89;94121.53;5131585;27;20638;-44
2023/05/17 09:25:04;;;;;;;10.40;6.30;;;;;;;28.08;48.37;94124.94;5133067;27;20234;-43
2023/05/17 09:27:31;;;;;;;11.80;7.43;;;;;;;28.02;48.22;94118.06;5132230;27;20610;-43
2023/05/17 09:29:58;;;;;;;11.02;6.07;;;;;;;28.00;48.49;94122.81;5132182;27;20191;-43
2023/05/17 09:32:25;;;;;;;7.63;6.60;;;;;;;27.91;48.17;94114.66;5131737;27;20241;-42
2023/05/17 09:34:52;;;;;;;10.15;6.10;;;;;;;27.93;48.44;94128.31;5129114;27;20291;-45
2023/05/17 09:37:19;;;;;;;8.30;6.43;;;;;;;27.91;48.41;94113.84;5132267;27;20189;-42
2023/05/17 09:39:47;;;;;;;9.18;6.47;;;;;;;27.92;48.15;94118.06;5131572;27;20184;-42
2023/05/17 09:42:16;;;;;;;14.07;6.47;;;;;;;27.89;48.57;94122.00;5131862;27;20216;-43
2023/05/17 09:44:52;;;;;;;7.72;5.63;;;;;;;27.85;48.66;94117.50;5131390;27;20216;-44
2023/05/17 09:47:26;;;;;;;14.27;7.07;;;;;;;27.75;48.23;94126.16;5131616;27;20223;-46
2023/05/17 09:49:53;;;;;;;9.23;6.72;;;;;;;27.71;48.73;94130.31;5131483;27;20269;-45
2023/05/17 09:52:20;;;;;;;10.75;6.30;;;;;;;27.50;48.47;94104.00;5131345;27;20577;-43
2023/05/17 09:54:54;;;;;;;9.95;6.07;;;;;;;27.57;48.79;94124.75;5129955;27;20911;-46
2023/05/17 09:57:24;;;;;;;11.32;6.95;;;;;;;27.51;48.79;94125.81;5131358;27;20647;-44
2023/05/17 09:59:54;;;;;;;8.18;6.43;;;;;;;27.46;49.08;94129.19;5131554;27;20184;-44
2023/05/17 10:02:22;;;;;;;13.30;6.10;;;;;;;27.41;48.78;94133.63;5131454;27;20331;-46
2023/05/17 10:04:51;;;;;;;10.48;6.20;;;;;;;27.36;48.98;94110.75;5132041;27;20717;-44
2023/05/17 10:07:21;;;;;;;12.98;7.50;;;;;;;27.33;49.07;94116.53;5132896;27;20188;-45
2023/05/17 10:09:49;;;;;;;11.43;6.70;;;;;;;27.15;49.32;94098.56;5131519;27;20192;-46
2023/05/17 10:12:18;;;;;;;10.13;6.35;;;;;;;27.24;48.81;94121.47;5131464;27;20290;-46
2023/05/17 10:14:47;;;;;;;8.93;6.32;;;;;;;27.21;49.26;94108.06;5131246;27;20564;-43
2023/05/17 10:17:15;;;;;;;11.77;6.07;;;;;;;27.15;48.90;94109.06;5131381;27;20192;-44
2023/05/17 10:19:43;;;;;;;8.82;5.72;;;;;;;27.08;49.09;94103.25;5127660;27;20180;-45
2023/05/17 10:22:11;;;;;;;6.65;5.68;;;;;;;26.98;49.15;94086.38;5128472;27;20216;-45
2023/05/17 10:24:38;;;;;;;11.85;6.40;;;;;;;26.90;49.75;94084.25;5130722;27;20267;-47
2023/05/17 10:27:06;;;;;;;12.32;5.88;;;;;;;26.82;49.79;94079.50;5131209;27;20264;-45
2023/05/17 10:29:34;;;;;;;8.23;6.10;;;;;;;26.69;50.09;94066.81;5131012;27;20192;-41
2023/05/17 10:32:06;;;;;;;7.63;6.60;;;;;;;26.62;50.03;94071.47;5131453;27;20227;-46
2023/05/17 10:34:35;;;;;;;8.18;6.07;;;;;;;26.51;50.42;94065.38;5130670;27;20192;-43
2023/05/17 10:37:03;;;;;;;8.75;5.22;;;;;;;26.39;50.67;94034.06;5130772;27;20192;-45
2023/05/17 10:39:33;;;;;;;9.50;6.63;;;;;;;26.26;50.82;94026.63;5130523;27;20184;-43
2023/05/17 10:42:04;;;;;;;8.75;6.00;;;;;;;26.12;51.40;94009.75;5130476;27;20208;-45
2023/05/17 10:44:33;;;;;;;9.88;5.97;;;;;;;26.05;51.38;94002.09;5130227;27;20566;-44
2023/05/17 10:47:00;;;;;;;9.88;6.13;;;;;;;25.87;51.59;93989.38;5130336;27;20667;-44
2023/05/17 10:49:30;;;;;;;8.23;5.90;;;;;;;25.89;51.73;93995.94;5130251;27;20641;-47
2023/05/17 10:51:58;;;;;;;12.27;6.53;;;;;;;25.81;52.47;93990.38;5128015;27;20202;-45
2023/05/17 10:54:35;;;;;;;6.85;5.90;;;;;;;25.75;52.55;93979.81;5130310;27;20192;-44
2023/05/17 10:57:04;;;;;;;11.23;6.38;;;;;;;25.66;52.65;93972.69;5128595;27;20208;-46
2023/05/17 10:59:35;;;;;;;11.35;6.20;;;;;;;25.69;52.61;93982.63;5130049;27;20200;-46
2023/05/17 11:02:05;;;;;;;11.57;7.00;;;;;;;25.45;52.92;93945.50;5130249;27;20212;-45
2023/05/17 11:04:37;;;;;;;8.00;6.47;;;;;;;25.66;52.54;93968.22;5129264;27;20188;-43
2023/05/17 11:07:24;;;;;;;9.30;5.82;;;;;;;25.70;52.82;93971.16;5128167;27;20185;-43
2023/05/17 11:09:54;;;;;;;7.32;5.50;;;;;;;25.74;52.89;93967.78;5127618;27;20656;-44
2023/05/17 11:12:32;;;;;;;9.05;5.85;;;;;;;25.80;52.90;93975.69;5127819;27;20188;-45
2023/05/17 11:15:00;;;;;;;10.10;5.38;;;;;;;25.84;52.92;93984.63;5129810;27;20175;-44
2023/05/17 11:17:28;;;;;;;7.57;5.40;;;;;;;25.87;52.66;93989.38;5130073;27;20181;-42
2023/05/17 11:20:10;;;;;;;11.07;5.63;;;;;;;25.88;52.70;93991.75;5130996;27;20574;-46
2023/05/17 11:22:41;;;;;;;8.38;5.85;;;;;;;25.90;52.64;93996.72;5130214;27;20216;-44
2023/05/17 11:25:10;;;;;;;7.43;5.03;;;;;;;25.93;52.71;94015.38;5128294;27;20221;-45
2023/05/17 11:27:39;;;;;;;7.10;6.00;;;;;;;25.93;52.77;94018.00;5128331;27;20180;-43
2023/05/17 11:30:16;;;;;;;7.35;5.38;;;;;;;25.94;52.54;94019.56;5127477;27;20184;-46
2023/05/17 11:32:47;;;;;;;10.57;6.22;;;;;;;25.94;52.74;94040.53;5129034;27;20195;-44